sensor_id;sensor_type;location;lat;lon;timestamp;temperature;humidity
21950;DHT22;11139;51.284;7.226;2023-05-02T00:01:45;12.60;99.90
21950;DHT22;11139;51.284;7.226;2023-05-02T00:04:21;12.60;99.90
21950;DHT22;11139;51.284;7.226;2023-05-02T00:06:47;12.60;99.90
21950;DHT22;11139;51.284;7.226;2023-05-02T00:09:21;12.60;99.90
21950;DHT22;11139;51.284;7.226;2023-05-02T00:15:13;12.50;99.90
21950;DHT22;11139;51.284;7.226;2023-05-02T00:17:39;12.50;99.90
21950;DHT22;11139;51.284;7.226;2023-05-02T00:20:25;12.50;99.90
21950;DHT22;11139;51.284;7.226;2023-05-02T00:22:54;12.50;99.90
21950;DHT22;11139;51.284;7.226;2023-05-02T00:25:20;12.50;99.90
21950;DHT22;11139;51.284;7.226;2023-05-02T00:30:54;12.50;99.90
21950;DHT22;11139;51.284;7.226;2023-05-02T00:33:26;12.50;99.90
21950;DHT22;11139;51.284;7.226;2023-05-02T00:35:54;12.40;99.90
21950;DHT22;11139;51.284;7.226;2023-05-02T00:38:25;12.50;99.90
21950;DHT22;11139;51.284;7.226;2023-05-02T00:40:51;12.40;99.90
21950;DHT22;11139;51.284;7.226;2023-05-02T00:43:17;12.50;99.90
21950;DHT22;11139;51.284;7.226;2023-05-02T00:45:45;12.40;99.90
21950;DHT22;11139;51.284;7.226;2023-05-02T00:48:11;12.40;99.90
21950;DHT22;11139;51.284;7.226;2023-05-02T00:50:37;12.40;99.90
21950;DHT22;11139;51.284;7.226;2023-05-02T00:55:33;12.40;99.90
21950;DHT22;11139;51.284;7.226;2023-05-02T00:58:22;12.40;99.90
21950;DHT22;11139;51.284;7.226;2023-05-02T01:01:03;12.40;99.90
21950;DHT22;11139;51.284;7.226;2023-05-02T01:03:38;12.40;99.90
21950;DHT22;11139;51.284;7.226;2023-05-02T01:06:30;12.40;99.90
21950;DHT22;11139;51.284;7.226;2023-05-02T01:14:53;12.50;99.90
21950;DHT22;11139;51.284;7.226;2023-05-02T01:17:22;12.50;99.90
21950;DHT22;11139;51.284;7.226;2023-05-02T01:19:51;12.50;99.90
21950;DHT22;11139;51.284;7.226;2023-05-02T01:22:21;12.50;99.90
21950;DHT22;11139;51.284;7.226;2023-05-02T01:27:27;12.50;99.90
21950;DHT22;11139;51.284;7.226;2023-05-02T01:30:01;12.50;99.90
21950;DHT22;11139;51.284;7.226;2023-05-02T01:32:30;12.50;99.90
21950;DHT22;11139;51.284;7.226;2023-05-02T01:35:06;12.50;99.90
21950;DHT22;11139;51.284;7.226;2023-05-02T01:37:37;12.50;99.90
21950;DHT22;11139;51.284;7.226;2023-05-02T01:40:03;12.50;99.90
21950;DHT22;11139;51.284;7.226;2023-05-02T01:42:38;12.50;99.90
21950;DHT22;11139;51.284;7.226;2023-05-02T01:45:06;12.50;99.90
21950;DHT22;11139;51.284;7.226;2023-05-02T01:47:36;12.40;99.90
21950;DHT22;11139;51.284;7.226;2023-05-02T01:50:05;12.40;99.90
21950;DHT22;11139;51.284;7.226;2023-05-02T01:52:35;12.40;99.90
21950;DHT22;11139;51.284;7.226;2023-05-02T01:55:05;12.40;99.90
21950;DHT22;11139;51.284;7.226;2023-05-02T01:57:38;12.40;99.90
21950;DHT22;11139;51.284;7.226;2023-05-02T02:00:08;12.40;99.90
21950;DHT22;11139;51.284;7.226;2023-05-02T02:02:38;12.40;99.90
21950;DHT22;11139;51.284;7.226;2023-05-02T02:05:10;12.40;99.90
21950;DHT22;11139;51.284;7.226;2023-05-02T02:08:00;12.40;99.90
21950;DHT22;11139;51.284;7.226;2023-05-02T02:10:31;12.40;99.90
21950;DHT22;11139;51.284;7.226;2023-05-02T02:13:03;12.40;99.90
21950;DHT22;11139;51.284;7.226;2023-05-02T02:15:39;12.40;99.90
21950;DHT22;11139;51.284;7.226;2023-05-02T02:18:23;12.40;99.90
21950;DHT22;11139;51.284;7.226;2023-05-02T02:20:55;12.40;99.90
21950;DHT22;11139;51.284;7.226;2023-05-02T02:23:43;12.40;99.90
21950;DHT22;11139;51.284;7.226;2023-05-02T02:26:29;12.40;99.90
21950;DHT22;11139;51.284;7.226;2023-05-02T02:28:56;12.40;99.90
21950;DHT22;11139;51.284;7.226;2023-05-02T02:31:42;12.40;99.90
21950;DHT22;11139;51.284;7.226;2023-05-02T02:34:14;12.40;99.90
21950;DHT22;11139;51.284;7.226;2023-05-02T02:48:34;12.40;99.90
21950;DHT22;11139;51.284;7.226;2023-05-02T02:51:37;12.30;99.90
21950;DHT22;11139;51.284;7.226;2023-05-02T03:00:07;12.30;99.90
21950;DHT22;11139;51.284;7.226;2023-05-02T03:12:09;12.30;99.90
21950;DHT22;11139;51.284;7.226;2023-05-02T03:14:37;12.30;99.90
21950;DHT22;11139;51.284;7.226;2023-05-02T03:17:47;12.30;99.90
21950;DHT22;11139;51.284;7.226;2023-05-02T03:20:33;12.30;99.90
21950;DHT22;11139;51.284;7.226;2023-05-02T03:23:24;12.30;99.90
21950;DHT22;11139;51.284;7.226;2023-05-02T03:28:55;12.30;99.90
21950;DHT22;11139;51.284;7.226;2023-05-02T03:31:38;12.30;99.90
21950;DHT22;11139;51.284;7.226;2023-05-02T03:34:06;12.30;99.90
21950;DHT22;11139;51.284;7.226;2023-05-02T03:36:50;12.30;99.90
21950;DHT22;11139;51.284;7.226;2023-05-02T03:39:16;12.20;99.90
21950;DHT22;11139;51.284;7.226;2023-05-02T03:41:44;12.20;99.90
21950;DHT22;11139;51.284;7.226;2023-05-02T03:44:13;12.20;99.90
21950;DHT22;11139;51.284;7.226;2023-05-02T03:46:44;12.20;99.90
21950;DHT22;11139;51.284;7.226;2023-05-02T03:49:16;12.20;99.90
21950;DHT22;11139;51.284;7.226;2023-05-02T03:51:52;12.20;99.90
21950;DHT22;11139;51.284;7.226;2023-05-02T03:54:30;12.20;99.90
21950;DHT22;11139;51.284;7.226;2023-05-02T03:57:18;12.20;99.90
21950;DHT22;11139;51.284;7.226;2023-05-02T03:59:51;12.20;99.90
21950;DHT22;11139;51.284;7.226;2023-05-02T04:02:43;12.20;99.90
21950;DHT22;11139;51.284;7.226;2023-05-02T04:05:25;12.20;99.90
21950;DHT22;11139;51.284;7.226;2023-05-02T04:07:59;12.20;99.90
21950;DHT22;11139;51.284;7.226;2023-05-02T04:10:27;12.20;99.90
21950;DHT22;11139;51.284;7.226;2023-05-02T04:13:00;12.20;99.90
21950;DHT22;11139;51.284;7.226;2023-05-02T04:16:09;12.20;99.90
21950;DHT22;11139;51.284;7.226;2023-05-02T04:21:35;12.20;99.90
21950;DHT22;11139;51.284;7.226;2023-05-02T04:24:01;12.20;99.90
21950;DHT22;11139;51.284;7.226;2023-05-02T04:26:26;12.20;99.90
21950;DHT22;11139;51.284;7.226;2023-05-02T04:28:52;12.20;99.90
21950;DHT22;11139;51.284;7.226;2023-05-02T04:31:17;12.20;99.90
21950;DHT22;11139;51.284;7.226;2023-05-02T04:33:46;12.20;99.90
21950;DHT22;11139;51.284;7.226;2023-05-02T04:36:13;12.20;99.90
21950;DHT22;11139;51.284;7.226;2023-05-02T04:38:38;12.10;99.90
21950;DHT22;11139;51.284;7.226;2023-05-02T04:41:04;12.20;99.90
21950;DHT22;11139;51.284;7.226;2023-05-02T04:43:30;12.10;99.90
21950;DHT22;11139;51.284;7.226;2023-05-02T04:45:55;12.10;99.90
21950;DHT22;11139;51.284;7.226;2023-05-02T04:48:22;12.20;99.90
21950;DHT22;11139;51.284;7.226;2023-05-02T04:50:50;12.10;99.90
21950;DHT22;11139;51.284;7.226;2023-05-02T04:53:17;12.10;99.90
21950;DHT22;11139;51.284;7.226;2023-05-02T04:55:43;12.10;99.90
21950;DHT22;11139;51.284;7.226;2023-05-02T04:58:09;12.10;99.90
21950;DHT22;11139;51.284;7.226;2023-05-02T05:00:34;12.10;99.90
21950;DHT22;11139;51.284;7.226;2023-05-02T05:03:00;12.10;99.90
21950;DHT22;11139;51.284;7.226;2023-05-02T05:05:25;12.10;99.90
21950;DHT22;11139;51.284;7.226;2023-05-02T05:07:51;12.10;99.90
21950;DHT22;11139;51.284;7.226;2023-05-02T05:10:17;12.10;99.90
21950;DHT22;11139;51.284;7.226;2023-05-02T05:12:42;12.10;99.90
21950;DHT22;11139;51.284;7.226;2023-05-02T05:15:08;12.10;99.90
21950;DHT22;11139;51.284;7.226;2023-05-02T05:17:34;12.00;99.90
21950;DHT22;11139;51.284;7.226;2023-05-02T05:20:00;12.00;99.90
21950;DHT22;11139;51.284;7.226;2023-05-02T05:22:26;12.00;99.90
21950;DHT22;11139;51.284;7.226;2023-05-02T05:24:54;12.00;99.90
21950;DHT22;11139;51.284;7.226;2023-05-02T05:27:20;12.00;99.90
21950;DHT22;11139;51.284;7.226;2023-05-02T05:29:46;12.00;99.90
21950;DHT22;11139;51.284;7.226;2023-05-02T05:32:12;12.00;99.90
21950;DHT22;11139;51.284;7.226;2023-05-02T05:34:37;12.00;99.90
21950;DHT22;11139;51.284;7.226;2023-05-02T05:37:03;12.00;99.90
21950;DHT22;11139;51.284;7.226;2023-05-02T05:39:28;12.00;99.90
21950;DHT22;11139;51.284;7.226;2023-05-02T05:41:54;12.00;99.90
21950;DHT22;11139;51.284;7.226;2023-05-02T05:44:19;12.00;99.90
21950;DHT22;11139;51.284;7.226;2023-05-02T05:46:49;12.00;99.90
21950;DHT22;11139;51.284;7.226;2023-05-02T05:49:15;12.00;99.90
21950;DHT22;11139;51.284;7.226;2023-05-02T05:51:41;12.00;99.90
21950;DHT22;11139;51.284;7.226;2023-05-02T05:54:07;12.00;99.90
21950;DHT22;11139;51.284;7.226;2023-05-02T05:56:33;12.00;99.90
21950;DHT22;11139;51.284;7.226;2023-05-02T05:58:58;12.00;99.90
21950;DHT22;11139;51.284;7.226;2023-05-02T06:01:24;12.00;99.90
21950;DHT22;11139;51.284;7.226;2023-05-02T06:03:50;12.00;99.90
21950;DHT22;11139;51.284;7.226;2023-05-02T06:06:16;12.00;99.90
21950;DHT22;11139;51.284;7.226;2023-05-02T06:08:41;12.00;99.90
21950;DHT22;11139;51.284;7.226;2023-05-02T06:11:08;12.00;99.90
21950;DHT22;11139;51.284;7.226;2023-05-02T06:13:34;12.00;99.90
21950;DHT22;11139;51.284;7.226;2023-05-02T06:16:00;12.00;99.90
21950;DHT22;11139;51.284;7.226;2023-05-02T06:18:26;12.00;99.90
21950;DHT22;11139;51.284;7.226;2023-05-02T06:20:52;12.00;99.90
21950;DHT22;11139;51.284;7.226;2023-05-02T06:23:17;12.00;99.90
21950;DHT22;11139;51.284;7.226;2023-05-02T06:25:43;12.00;99.90
21950;DHT22;11139;51.284;7.226;2023-05-02T06:28:08;12.00;99.90
21950;DHT22;11139;51.284;7.226;2023-05-02T06:30:34;12.00;99.90
21950;DHT22;11139;51.284;7.226;2023-05-02T06:33:02;12.00;99.90
21950;DHT22;11139;51.284;7.226;2023-05-02T06:35:28;12.00;99.90
21950;DHT22;11139;51.284;7.226;2023-05-02T06:37:53;12.00;99.90
21950;DHT22;11139;51.284;7.226;2023-05-02T06:40:19;12.00;99.90
21950;DHT22;11139;51.284;7.226;2023-05-02T06:42:45;12.00;99.90
21950;DHT22;11139;51.284;7.226;2023-05-02T06:45:10;12.00;99.90
21950;DHT22;11139;51.284;7.226;2023-05-02T06:47:36;12.00;99.90
21950;DHT22;11139;51.284;7.226;2023-05-02T06:50:01;12.00;99.90
21950;DHT22;11139;51.284;7.226;2023-05-02T06:52:27;12.00;99.90
21950;DHT22;11139;51.284;7.226;2023-05-02T06:54:53;12.00;99.90
21950;DHT22;11139;51.284;7.226;2023-05-02T06:57:18;12.00;99.90
21950;DHT22;11139;51.284;7.226;2023-05-02T06:59:44;12.00;99.90
21950;DHT22;11139;51.284;7.226;2023-05-02T07:02:09;12.00;99.90
21950;DHT22;11139;51.284;7.226;2023-05-02T07:04:35;12.00;99.90
21950;DHT22;11139;51.284;7.226;2023-05-02T07:07:01;12.00;99.90
21950;DHT22;11139;51.284;7.226;2023-05-02T07:09:26;12.00;99.90
21950;DHT22;11139;51.284;7.226;2023-05-02T07:11:52;12.00;99.90
21950;DHT22;11139;51.284;7.226;2023-05-02T07:14:17;12.00;99.90
21950;DHT22;11139;51.284;7.226;2023-05-02T07:16:43;12.00;99.90
21950;DHT22;11139;51.284;7.226;2023-05-02T07:19:08;12.00;99.90
21950;DHT22;11139;51.284;7.226;2023-05-02T07:21:34;12.00;99.90
21950;DHT22;11139;51.284;7.226;2023-05-02T07:23:59;12.00;99.90
21950;DHT22;11139;51.284;7.226;2023-05-02T07:26:25;12.00;99.90
21950;DHT22;11139;51.284;7.226;2023-05-02T07:28:52;12.00;99.90
21950;DHT22;11139;51.284;7.226;2023-05-02T07:31:17;12.00;99.90
21950;DHT22;11139;51.284;7.226;2023-05-02T07:33:43;12.00;99.90
21950;DHT22;11139;51.284;7.226;2023-05-02T07:36:09;12.00;99.90
21950;DHT22;11139;51.284;7.226;2023-05-02T07:38:34;12.00;99.90
21950;DHT22;11139;51.284;7.226;2023-05-02T07:41:00;12.00;99.90
21950;DHT22;11139;51.284;7.226;2023-05-02T07:43:25;12.00;99.90
21950;DHT22;11139;51.284;7.226;2023-05-02T07:45:52;12.00;99.90
21950;DHT22;11139;51.284;7.226;2023-05-02T07:48:17;12.00;99.90
21950;DHT22;11139;51.284;7.226;2023-05-02T07:50:43;12.00;99.90
21950;DHT22;11139;51.284;7.226;2023-05-02T07:53:09;12.00;99.90
21950;DHT22;11139;51.284;7.226;2023-05-02T07:55:35;12.00;99.90
21950;DHT22;11139;51.284;7.226;2023-05-02T07:58:00;12.00;99.90
21950;DHT22;11139;51.284;7.226;2023-05-02T08:00:26;11.90;99.90
21950;DHT22;11139;51.284;7.226;2023-05-02T08:02:52;11.90;99.90
21950;DHT22;11139;51.284;7.226;2023-05-02T08:05:17;12.00;99.90
21950;DHT22;11139;51.284;7.226;2023-05-02T08:07:43;11.90;99.90
21950;DHT22;11139;51.284;7.226;2023-05-02T08:10:08;11.90;99.90
21950;DHT22;11139;51.284;7.226;2023-05-02T08:12:38;11.90;99.90
21950;DHT22;11139;51.284;7.226;2023-05-02T08:15:05;11.90;99.90
21950;DHT22;11139;51.284;7.226;2023-05-02T08:17:31;11.90;99.90
21950;DHT22;11139;51.284;7.226;2023-05-02T08:19:56;11.90;99.90
21950;DHT22;11139;51.284;7.226;2023-05-02T08:22:22;11.90;99.90
21950;DHT22;11139;51.284;7.226;2023-05-02T08:24:47;11.90;99.90
21950;DHT22;11139;51.284;7.226;2023-05-02T08:27:13;11.90;99.90
21950;DHT22;11139;51.284;7.226;2023-05-02T08:29:38;11.90;99.90
21950;DHT22;11139;51.284;7.226;2023-05-02T08:32:04;11.90;99.90
21950;DHT22;11139;51.284;7.226;2023-05-02T08:34:30;11.80;99.90
21950;DHT22;11139;51.284;7.226;2023-05-02T08:36:58;11.50;99.90
21950;DHT22;11139;51.284;7.226;2023-05-02T08:39:23;11.20;99.90
21950;DHT22;11139;51.284;7.226;2023-05-02T08:41:49;11.20;99.90
21950;DHT22;11139;51.284;7.226;2023-05-02T08:44:15;11.30;99.90
21950;DHT22;11139;51.284;7.226;2023-05-02T08:46:41;11.30;99.90
21950;DHT22;11139;51.284;7.226;2023-05-02T08:49:11;11.40;99.90
21950;DHT22;11139;51.284;7.226;2023-05-02T08:51:37;11.40;99.90
21950;DHT22;11139;51.284;7.226;2023-05-02T08:54:03;11.40;99.90
21950;DHT22;11139;51.284;7.226;2023-05-02T08:56:31;11.50;99.90
21950;DHT22;11139;51.284;7.226;2023-05-02T08:58:57;11.50;99.90
21950;DHT22;11139;51.284;7.226;2023-05-02T09:01:23;11.50;99.90
21950;DHT22;11139;51.284;7.226;2023-05-02T09:03:52;11.50;99.90
21950;DHT22;11139;51.284;7.226;2023-05-02T09:06:19;11.50;99.90
21950;DHT22;11139;51.284;7.226;2023-05-02T09:08:46;11.50;99.90
21950;DHT22;11139;51.284;7.226;2023-05-02T09:11:17;11.50;99.90
21950;DHT22;11139;51.284;7.226;2023-05-02T09:13:43;11.60;99.90
21950;DHT22;11139;51.284;7.226;2023-05-02T09:16:18;11.60;99.90
21950;DHT22;11139;51.284;7.226;2023-05-02T09:21:48;11.60;99.90
21950;DHT22;11139;51.284;7.226;2023-05-02T09:24:17;11.60;99.90
21950;DHT22;11139;51.284;7.226;2023-05-02T09:26:55;11.60;99.90
21950;DHT22;11139;51.284;7.226;2023-05-02T09:29:21;11.60;99.90
21950;DHT22;11139;51.284;7.226;2023-05-02T09:31:46;11.60;99.90
21950;DHT22;11139;51.284;7.226;2023-05-02T09:34:13;11.50;99.90
21950;DHT22;11139;51.284;7.226;2023-05-02T09:36:42;11.50;99.90
21950;DHT22;11139;51.284;7.226;2023-05-02T09:39:18;11.40;99.90
21950;DHT22;11139;51.284;7.226;2023-05-02T09:41:45;11.40;99.90
21950;DHT22;11139;51.284;7.226;2023-05-02T09:44:15;11.40;99.90
21950;DHT22;11139;51.284;7.226;2023-05-02T09:46:53;11.40;99.90
21950;DHT22;11139;51.284;7.226;2023-05-02T09:49:41;11.40;99.90
21950;DHT22;11139;51.284;7.226;2023-05-02T09:52:12;11.40;99.90
21950;DHT22;11139;51.284;7.226;2023-05-02T09:54:38;11.30;99.90
21950;DHT22;11139;51.284;7.226;2023-05-02T09:57:03;11.40;99.90
21950;DHT22;11139;51.284;7.226;2023-05-02T09:59:31;11.40;99.90
21950;DHT22;11139;51.284;7.226;2023-05-02T10:01:57;11.40;99.90
21950;DHT22;11139;51.284;7.226;2023-05-02T10:04:23;11.40;99.90
21950;DHT22;11139;51.284;7.226;2023-05-02T10:06:49;11.40;99.90
21950;DHT22;11139;51.284;7.226;2023-05-02T10:09:15;11.40;99.90
21950;DHT22;11139;51.284;7.226;2023-05-02T10:11:41;11.40;99.90
21950;DHT22;11139;51.284;7.226;2023-05-02T10:14:08;11.40;99.90
21950;DHT22;11139;51.284;7.226;2023-05-02T10:16:35;11.40;99.90
21950;DHT22;11139;51.284;7.226;2023-05-02T10:21:26;11.50;99.90
21950;DHT22;11139;51.284;7.226;2023-05-02T10:23:52;11.50;99.90
21950;DHT22;11139;51.284;7.226;2023-05-02T10:26:18;11.50;99.90
21950;DHT22;11139;51.284;7.226;2023-05-02T10:28:46;11.50;99.90
21950;DHT22;11139;51.284;7.226;2023-05-02T10:31:12;11.50;99.90
21950;DHT22;11139;51.284;7.226;2023-05-02T10:33:38;11.40;99.90
21950;DHT22;11139;51.284;7.226;2023-05-02T10:36:04;11.40;99.90
21950;DHT22;11139;51.284;7.226;2023-05-02T10:38:31;11.40;99.90
21950;DHT22;11139;51.284;7.226;2023-05-02T10:40:59;11.40;99.90
21950;DHT22;11139;51.284;7.226;2023-05-02T10:43:27;11.40;99.90
21950;DHT22;11139;51.284;7.226;2023-05-02T10:45:53;11.50;99.90
21950;DHT22;11139;51.284;7.226;2023-05-02T10:48:20;11.50;99.90
21950;DHT22;11139;51.284;7.226;2023-05-02T10:50:47;11.50;99.90
21950;DHT22;11139;51.284;7.226;2023-05-02T10:53:32;11.60;99.90
21950;DHT22;11139;51.284;7.226;2023-05-02T10:58:33;11.60;99.90
21950;DHT22;11139;51.284;7.226;2023-05-02T11:03:56;11.70;99.90
21950;DHT22;11139;51.284;7.226;2023-05-02T11:06:22;11.70;99.90
21950;DHT22;11139;51.284;7.226;2023-05-02T11:08:48;11.70;99.90
21950;DHT22;11139;51.284;7.226;2023-05-02T11:13:58;11.80;99.90
21950;DHT22;11139;51.284;7.226;2023-05-02T11:16:23;11.80;99.90
21950;DHT22;11139;51.284;7.226;2023-05-02T11:18:58;11.80;99.90
21950;DHT22;11139;51.284;7.226;2023-05-02T11:21:27;11.80;99.90
21950;DHT22;11139;51.284;7.226;2023-05-02T11:24:39;11.80;99.90
21950;DHT22;11139;51.284;7.226;2023-05-02T11:26:39;11.80;99.90
21950;DHT22;11139;51.284;7.226;2023-05-02T11:29:04;11.80;99.90
21950;DHT22;11139;51.284;7.226;2023-05-02T11:33:56;11.80;99.90
21950;DHT22;11139;51.284;7.226;2023-05-02T11:36:31;11.80;99.90
21950;DHT22;11139;51.284;7.226;2023-05-02T11:38:58;11.80;99.90
21950;DHT22;11139;51.284;7.226;2023-05-02T11:41:39;11.80;99.90
21950;DHT22;11139;51.284;7.226;2023-05-02T11:44:05;11.90;99.90
21950;DHT22;11139;51.284;7.226;2023-05-02T11:46:36;11.80;99.90
21950;DHT22;11139;51.284;7.226;2023-05-02T11:49:02;11.90;99.90
21950;DHT22;11139;51.284;7.226;2023-05-02T11:51:28;11.90;99.90
21950;DHT22;11139;51.284;7.226;2023-05-02T11:53:53;11.80;99.90
21950;DHT22;11139;51.284;7.226;2023-05-02T11:56:24;11.80;99.90
21950;DHT22;11139;51.284;7.226;2023-05-02T11:59:01;11.80;99.90
21950;DHT22;11139;51.284;7.226;2023-05-02T12:01:27;11.80;99.90
21950;DHT22;11139;51.284;7.226;2023-05-02T12:04:11;11.80;99.90
21950;DHT22;11139;51.284;7.226;2023-05-02T12:06:36;11.80;99.90
21950;DHT22;11139;51.284;7.226;2023-05-02T12:09:05;11.80;99.90
21950;DHT22;11139;51.284;7.226;2023-05-02T12:11:32;11.80;99.90
21950;DHT22;11139;51.284;7.226;2023-05-02T12:13:57;11.80;99.90
21950;DHT22;11139;51.284;7.226;2023-05-02T12:16:23;11.80;99.90
21950;DHT22;11139;51.284;7.226;2023-05-02T12:18:49;11.80;99.90
21950;DHT22;11139;51.284;7.226;2023-05-02T12:21:15;11.80;99.90
21950;DHT22;11139;51.284;7.226;2023-05-02T12:23:41;11.80;99.90
21950;DHT22;11139;51.284;7.226;2023-05-02T12:26:18;11.80;99.90
21950;DHT22;11139;51.284;7.226;2023-05-02T12:28:47;11.80;99.90
21950;DHT22;11139;51.284;7.226;2023-05-02T12:31:13;11.80;99.90
21950;DHT22;11139;51.284;7.226;2023-05-02T12:33:42;11.80;99.90
21950;DHT22;11139;51.284;7.226;2023-05-02T12:36:08;11.80;99.90
21950;DHT22;11139;51.284;7.226;2023-05-02T12:38:35;11.80;99.90
21950;DHT22;11139;51.284;7.226;2023-05-02T12:41:00;11.90;99.90
21950;DHT22;11139;51.284;7.226;2023-05-02T12:43:26;11.90;99.90
21950;DHT22;11139;51.284;7.226;2023-05-02T12:46:08;11.90;99.90
21950;DHT22;11139;51.284;7.226;2023-05-02T12:48:33;11.90;99.90
21950;DHT22;11139;51.284;7.226;2023-05-02T12:50:59;11.90;99.90
21950;DHT22;11139;51.284;7.226;2023-05-02T12:53:38;11.90;99.90
21950;DHT22;11139;51.284;7.226;2023-05-02T12:56:07;11.90;99.90
21950;DHT22;11139;51.284;7.226;2023-05-02T12:58:41;11.90;99.90
21950;DHT22;11139;51.284;7.226;2023-05-02T13:01:07;11.90;99.90
21950;DHT22;11139;51.284;7.226;2023-05-02T13:03:33;11.90;99.90
21950;DHT22;11139;51.284;7.226;2023-05-02T13:05:59;11.90;99.90
21950;DHT22;11139;51.284;7.226;2023-05-02T13:08:25;11.90;99.90
21950;DHT22;11139;51.284;7.226;2023-05-02T13:10:50;11.90;99.90
21950;DHT22;11139;51.284;7.226;2023-05-02T13:13:16;11.90;99.90
21950;DHT22;11139;51.284;7.226;2023-05-02T13:15:41;11.90;99.90
21950;DHT22;11139;51.284;7.226;2023-05-02T13:18:07;11.90;99.90
21950;DHT22;11139;51.284;7.226;2023-05-02T13:20:32;11.90;99.90
21950;DHT22;11139;51.284;7.226;2023-05-02T13:22:58;11.90;99.90
21950;DHT22;11139;51.284;7.226;2023-05-02T13:25:24;11.90;99.90
21950;DHT22;11139;51.284;7.226;2023-05-02T13:27:50;11.90;99.90
21950;DHT22;11139;51.284;7.226;2023-05-02T13:30:16;11.90;99.90
21950;DHT22;11139;51.284;7.226;2023-05-02T13:32:41;11.90;99.90
21950;DHT22;11139;51.284;7.226;2023-05-02T13:35:07;11.90;99.90
21950;DHT22;11139;51.284;7.226;2023-05-02T13:37:33;11.90;99.90
21950;DHT22;11139;51.284;7.226;2023-05-02T13:39:58;11.90;99.90
21950;DHT22;11139;51.284;7.226;2023-05-02T13:42:24;11.90;99.90
21950;DHT22;11139;51.284;7.226;2023-05-02T13:44:50;11.90;99.90
21950;DHT22;11139;51.284;7.226;2023-05-02T13:47:15;11.90;99.90
21950;DHT22;11139;51.284;7.226;2023-05-02T13:49:41;11.90;99.90
21950;DHT22;11139;51.284;7.226;2023-05-02T13:52:07;11.90;99.90
21950;DHT22;11139;51.284;7.226;2023-05-02T13:54:32;12.00;99.90
21950;DHT22;11139;51.284;7.226;2023-05-02T13:56:58;11.90;99.90
21950;DHT22;11139;51.284;7.226;2023-05-02T13:59:24;11.90;99.90
21950;DHT22;11139;51.284;7.226;2023-05-02T14:01:49;12.00;99.90
21950;DHT22;11139;51.284;7.226;2023-05-02T14:04:15;11.90;99.90
21950;DHT22;11139;51.284;7.226;2023-05-02T14:06:40;12.00;99.90
21950;DHT22;11139;51.284;7.226;2023-05-02T14:09:06;12.00;99.90
21950;DHT22;11139;51.284;7.226;2023-05-02T14:11:31;12.00;99.90
21950;DHT22;11139;51.284;7.226;2023-05-02T14:13:57;12.00;99.90
21950;DHT22;11139;51.284;7.226;2023-05-02T14:16:24;12.00;99.90
21950;DHT22;11139;51.284;7.226;2023-05-02T14:18:49;12.00;99.90
21950;DHT22;11139;51.284;7.226;2023-05-02T14:21:15;12.00;99.90
21950;DHT22;11139;51.284;7.226;2023-05-02T14:23:41;12.10;99.90
21950;DHT22;11139;51.284;7.226;2023-05-02T14:26:06;12.10;99.90
21950;DHT22;11139;51.284;7.226;2023-05-02T14:28:32;12.10;99.90
21950;DHT22;11139;51.284;7.226;2023-05-02T14:30:58;12.10;99.90
21950;DHT22;11139;51.284;7.226;2023-05-02T14:33:23;12.10;99.90
21950;DHT22;11139;51.284;7.226;2023-05-02T14:35:49;12.10;99.90
21950;DHT22;11139;51.284;7.226;2023-05-02T14:38:14;12.10;99.90
21950;DHT22;11139;51.284;7.226;2023-05-02T14:40:40;12.10;99.90
21950;DHT22;11139;51.284;7.226;2023-05-02T14:43:06;12.10;99.90
21950;DHT22;11139;51.284;7.226;2023-05-02T14:45:32;12.20;99.90
21950;DHT22;11139;51.284;7.226;2023-05-02T14:47:58;12.20;99.90
21950;DHT22;11139;51.284;7.226;2023-05-02T14:50:23;12.20;99.90
21950;DHT22;11139;51.284;7.226;2023-05-02T14:52:49;12.20;99.90
21950;DHT22;11139;51.284;7.226;2023-05-02T14:55:15;12.20;99.90
21950;DHT22;11139;51.284;7.226;2023-05-02T14:57:40;12.20;99.90
21950;DHT22;11139;51.284;7.226;2023-05-02T15:00:06;12.20;99.90
21950;DHT22;11139;51.284;7.226;2023-05-02T15:02:32;12.20;99.90
21950;DHT22;11139;51.284;7.226;2023-05-02T15:04:58;12.20;99.90
21950;DHT22;11139;51.284;7.226;2023-05-02T15:07:24;12.20;99.90
21950;DHT22;11139;51.284;7.226;2023-05-02T15:09:50;12.10;99.90
21950;DHT22;11139;51.284;7.226;2023-05-02T15:12:15;12.10;99.90
21950;DHT22;11139;51.284;7.226;2023-05-02T15:14:41;12.10;99.90
21950;DHT22;11139;51.284;7.226;2023-05-02T15:17:06;12.10;99.90
21950;DHT22;11139;51.284;7.226;2023-05-02T15:19:32;12.10;99.90
21950;DHT22;11139;51.284;7.226;2023-05-02T15:21:57;12.10;99.90
21950;DHT22;11139;51.284;7.226;2023-05-02T15:24:23;12.10;99.90
21950;DHT22;11139;51.284;7.226;2023-05-02T15:26:49;12.10;99.90
21950;DHT22;11139;51.284;7.226;2023-05-02T15:29:15;12.10;99.90
21950;DHT22;11139;51.284;7.226;2023-05-02T15:31:41;12.10;99.90
21950;DHT22;11139;51.284;7.226;2023-05-02T15:34:06;12.10;99.90
21950;DHT22;11139;51.284;7.226;2023-05-02T15:36:32;12.10;99.90
21950;DHT22;11139;51.284;7.226;2023-05-02T15:39:04;12.10;99.90
21950;DHT22;11139;51.284;7.226;2023-05-02T15:41:30;12.10;99.90
21950;DHT22;11139;51.284;7.226;2023-05-02T15:43:56;12.20;99.90
21950;DHT22;11139;51.284;7.226;2023-05-02T15:46:21;12.20;99.90
21950;DHT22;11139;51.284;7.226;2023-05-02T15:48:47;12.20;99.90
21950;DHT22;11139;51.284;7.226;2023-05-02T15:51:12;12.20;99.90
21950;DHT22;11139;51.284;7.226;2023-05-02T15:53:38;12.20;99.90
21950;DHT22;11139;51.284;7.226;2023-05-02T15:56:12;12.20;99.90
21950;DHT22;11139;51.284;7.226;2023-05-02T15:58:38;12.20;99.90
21950;DHT22;11139;51.284;7.226;2023-05-02T16:01:04;12.20;99.90
21950;DHT22;11139;51.284;7.226;2023-05-02T16:03:30;12.20;99.90
21950;DHT22;11139;51.284;7.226;2023-05-02T16:05:56;12.20;99.90
21950;DHT22;11139;51.284;7.226;2023-05-02T16:08:24;12.20;99.90
21950;DHT22;11139;51.284;7.226;2023-05-02T16:10:49;12.20;99.90
21950;DHT22;11139;51.284;7.226;2023-05-02T16:13:15;12.20;99.90
21950;DHT22;11139;51.284;7.226;2023-05-02T16:15:41;12.20;99.90
21950;DHT22;11139;51.284;7.226;2023-05-02T16:18:06;12.30;99.90
21950;DHT22;11139;51.284;7.226;2023-05-02T16:20:32;12.20;99.90
21950;DHT22;11139;51.284;7.226;2023-05-02T16:23:01;12.20;99.90
21950;DHT22;11139;51.284;7.226;2023-05-02T16:25:29;12.20;99.90
21950;DHT22;11139;51.284;7.226;2023-05-02T16:27:54;12.20;99.90
21950;DHT22;11139;51.284;7.226;2023-05-02T16:30:23;12.20;99.90
21950;DHT22;11139;51.284;7.226;2023-05-02T16:32:48;12.20;99.90
21950;DHT22;11139;51.284;7.226;2023-05-02T16:35:14;12.20;99.90
21950;DHT22;11139;51.284;7.226;2023-05-02T16:37:40;12.20;99.90
21950;DHT22;11139;51.284;7.226;2023-05-02T16:40:06;12.20;99.90
21950;DHT22;11139;51.284;7.226;2023-05-02T16:42:32;12.20;99.90
21950;DHT22;11139;51.284;7.226;2023-05-02T16:44:58;12.20;99.90